Monday, July 23, 2018, 7:35 AM EDT
Back to Local

KBUF, Greater Buffalo International Airport

Location: Buffalo, NY, United States Lat: 42.933
Local Time: 7:35 AM EDT (11:35 GMT) Lon: -78.733
Time Zone: US/Eastern Elev: 725 ft

Show me the last for .
Show Decoded

2018-07-23 06:54 METAR KBUF 231054Z 12008KT 10SM SCT055 SCT110 BKN170 21/19 A2993 RMK AO2 SLP131
                 T02110189 =
2018-07-23 05:54 METAR KBUF 230954Z COR 08005KT 10SM SCT055 SCT110 20/18 A2992 RMK AO2 SLP128
                 T02000183 =
2018-07-23 04:54 METAR KBUF 230854Z 00000KT 10SM FEW045 SCT110 21/18 A2990 RMK AO2 SLP120
                 T02060183 51005 =
2018-07-23 03:54 METAR KBUF 230754Z COR 14005KT 10SM FEW045 SCT110 21/19 A2990 RMK AO2 SLP120
                 T02110189 =
2018-07-23 02:54 METAR KBUF 230654Z 10005KT 10SM FEW070 BKN110 21/19 A2989 RMK AO2 SLP118
                 T02110189 =
2018-07-23 01:54 METAR KBUF 230554Z 11005KT 10SM FEW045 SCT070 BKN110 22/18 A2988 RMK AO2 SLP116
                 T02220183 10256 20222 58002 =
2018-07-23 00:54 METAR KBUF 230454Z 11006KT 10SM FEW045 BKN070 OVC090 23/18 A2990 RMK AO2 SLP121
                 T02280183 402610156 =
2018-07-22 23:54 METAR KBUF 230354Z 09005KT 10SM BKN070 23/18 A2990 RMK AO2 SLP120 T02330178 =
2018-07-22 22:54 METAR KBUF 230254Z 08003KT 10SM SCT050 BKN095 24/18 A2989 RMK AO2 SLP118
                 T02390178 50006 =
2018-07-22 21:54 METAR KBUF 230154Z 10007KT 10SM SCT050 BKN090 24/18 A2990 RMK AO2 SLP120
                 T02390178 =
2018-07-22 20:54 METAR KBUF 230054Z 16005KT 10SM BKN045 BKN050 BKN200 24/17 A2988 RMK AO2 SLP115
                 T02440172 =
2018-07-22 19:54 METAR KBUF 222354Z 17014G19KT 10SM SCT050 BKN060 BKN200 26/17 A2987 RMK AO2
                 SLP112 T02560167 10261 20239 53021 =
2018-07-22 18:54 METAR KBUF 222254Z 20003KT 10SM BKN050 BKN060 BKN200 26/18 A2985 RMK AO2 SLP103
                 T02610183 =
2018-07-22 17:54 METAR KBUF 222154Z 20005KT 10SM SCT049 BKN060 BKN200 26/18 A2983 RMK AO2 SLP097
                 T02610183 =
2018-07-22 16:54 METAR KBUF 222054Z 28006KT 10SM SCT037 BKN055 BKN200 26/18 A2981 RMK AO2 SLP091
                 T02560178 51017 =
2018-07-22 15:54 METAR KBUF 221954Z 25007KT 10SM BKN033 BKN044 24/17 A2980 RMK AO2 SLP087
                 T02440172 =
2018-07-22 14:54 METAR KBUF 221854Z 19008KT 10SM BKN031 BKN050 24/17 A2979 RMK AO2 SLP084
                 T02390172 =
2018-07-22 14:24 METAR KBUF 221824Z 19010KT 10SM BKN031 BKN045 24/17 A2978 RMK AO2 T02390167 =
2018-07-22 13:54 METAR KBUF 221754Z 20015KT 10SM BKN027 23/17 A2976 RMK AO2 SLP075 60000
                 T02330172 10233 20172 53015 =
2018-07-22 12:54 METAR KBUF 221654Z 18014KT 10SM SCT021 BKN031 BKN060 22/17 A2974 RMK AO2 SLP068
                 T02220167 =
2018-07-22 12:34 METAR KBUF 221634Z 19008KT 10SM SCT021 BKN031 BKN060 22/18 A2973 RMK AO2
                 T02220178 =
2018-07-22 11:54 METAR KBUF 221554Z 14009KT 100V170 10SM SCT012 BKN019 BKN029 BKN200 22/18 A2973
                 RMK AO2 SLP066 T02170178 =
2018-07-22 11:39 METAR KBUF 221539Z 13006KT 10SM SCT012 BKN019 BKN029 BKN200 21/18 A2973 =
2018-07-22 10:54 METAR KBUF 221454Z 10009KT 10SM FEW010 BKN012 OVC045 19/17 A2972 RMK AO2 RAE17
                 SLP060 P0000 60000 T01940172 55000 =
2018-07-22 10:28 METAR KBUF 221428Z 08009KT 10SM BKN011 BKN014 OVC045 19/17 A2971 RMK AO2 RAE17
                 P0000 T01890172 =
2018-07-22 10:10 METAR KBUF 221410Z 06009KT 10SM -RA BKN008 BKN013 OVC045 19/17 A2970 RMK AO2
                 PCPN VRY LGT P0000 T01890172 =
2018-07-22 09:54 METAR KBUF 221354Z 06009KT 9SM -RA BKN010 BKN015 OVC045 18/17 A2971 RMK AO2
                 RAB16 SLP057 PCPN VRY LGT P0000 T01830172 =
2018-07-22 09:43 METAR KBUF 221343Z 05011KT 10SM -RA BKN010 BKN015 OVC045 19/17 A2970 RMK AO2
                 RAB16 PCPN VRY LGT P0000 T01890172 =
2018-07-22 09:25 METAR KBUF 221325Z 06012KT 10SM -RA SCT010 BKN015 BKN041 18/17 A2970 RMK AO2
                 RAB16 PCPN VRY LGT P0000 T01830172 =
2018-07-22 09:09 METAR KBUF 221309Z 06014KT 10SM BKN013 OVC041 18/17 A2971 RMK AO2 T01830172 =
2018-07-22 08:54 METAR KBUF 221254Z 06013KT 10SM SCT009 BKN043 OVC050 18/17 A2971 RMK AO2 PK WND
                 06026/1223 RAE48 SLP057 P0000 T01830172 =
2018-07-22 08:30 METAR KBUF 221230Z 06016G26KT 9SM -RA SCT009 SCT013 OVC047 18/17 A2971 RMK AO2
                 PK WND 06026/1223 P0000 T01780167 =
2018-07-22 07:54 METAR KBUF 221154Z 05013KT 8SM -RA BKN008 OVC011 17/17 A2972 RMK AO2 CIG 004V009
                 SLP060 P0018 60087 70103 T01720167 10172 20156 58017 =

Support USWX by starting your Amazon purchase here.